sensor_id;sensor_type;location;lat;lon;timestamp;pressure;altitude;pressure_sealevel;temperature;humidity
39823;BME280;25499;53.958;10.970;2023-01-25T07:48:47;103311.19;;;-1.91;100.00
39823;BME280;25499;53.958;10.970;2023-01-25T07:51:14;103315.19;;;-1.84;100.00
39823;BME280;25499;53.958;10.970;2023-01-25T07:53:58;103309.31;;;-1.83;100.00
39823;BME280;25499;53.958;10.970;2023-01-25T07:56:26;103301.25;;;-1.88;100.00
39823;BME280;25499;53.958;10.970;2023-01-25T07:58:54;103296.53;;;-1.83;100.00
39823;BME280;25499;53.958;10.970;2023-01-25T08:01:22;103304.75;;;-1.77;100.00
39823;BME280;25499;53.958;10.970;2023-01-25T08:03:48;103300.53;;;-1.77;100.00
39823;BME280;25499;53.958;10.970;2023-01-25T08:06:14;103301.47;;;-1.76;100.00
39823;BME280;25499;53.958;10.970;2023-01-25T08:08:45;103296.59;;;-1.73;100.00
39823;BME280;25499;53.958;10.970;2023-01-25T08:11:20;103282.59;;;-1.68;100.00
39823;BME280;25499;53.958;10.970;2023-01-25T08:13:46;103290.00;;;-1.71;100.00
39823;BME280;25499;53.958;10.970;2023-01-25T08:16:14;103283.03;;;-1.82;100.00
39823;BME280;25499;53.958;10.970;2023-01-25T08:18:40;103281.22;;;-1.83;100.00
39823;BME280;25499;53.958;10.970;2023-01-25T08:21:06;103279.09;;;-1.79;100.00
39823;BME280;25499;53.958;10.970;2023-01-25T08:23:31;103278.81;;;-1.82;100.00
39823;BME280;25499;53.958;10.970;2023-01-25T08:26:15;103277.22;;;-1.71;100.00
39823;BME280;25499;53.958;10.970;2023-01-25T08:28:41;103266.50;;;-1.67;100.00
39823;BME280;25499;53.958;10.970;2023-01-25T08:33:32;103251.41;;;-1.74;100.00
39823;BME280;25499;53.958;10.970;2023-01-25T08:35:58;103256.75;;;-1.81;100.00
39823;BME280;25499;53.958;10.970;2023-01-25T08:38:24;103235.50;;;-1.91;100.00
39823;BME280;25499;53.958;10.970;2023-01-25T08:40:49;103229.22;;;-1.94;100.00
39823;BME280;25499;53.958;10.970;2023-01-25T08:43:15;103232.19;;;-1.90;100.00
39823;BME280;25499;53.958;10.970;2023-01-25T08:45:40;103220.69;;;-1.95;100.00
39823;BME280;25499;53.958;10.970;2023-01-25T08:48:06;103214.06;;;-1.93;100.00
39823;BME280;25499;53.958;10.970;2023-01-25T08:50:31;103211.22;;;-1.96;100.00
39823;BME280;25499;53.958;10.970;2023-01-25T08:52:56;103213.38;;;-2.00;100.00
39823;BME280;25499;53.958;10.970;2023-01-25T08:55:22;103217.28;;;-1.85;100.00
39823;BME280;25499;53.958;10.970;2023-01-25T08:57:47;103209.97;;;-1.91;100.00
39823;BME280;25499;53.958;10.970;2023-01-25T09:00:14;103202.19;;;-1.92;100.00
39823;BME280;25499;53.958;10.970;2023-01-25T09:02:39;103208.09;;;-1.83;100.00
39823;BME280;25499;53.958;10.970;2023-01-25T09:05:05;103204.53;;;-1.85;100.00
39823;BME280;25499;53.958;10.970;2023-01-25T09:07:30;103204.59;;;-1.94;100.00
39823;BME280;25499;53.958;10.970;2023-01-25T09:09:57;103191.84;;;-1.94;100.00
39823;BME280;25499;53.958;10.970;2023-01-25T09:12:22;103191.84;;;-1.94;100.00
39823;BME280;25499;53.958;10.970;2023-01-25T09:14:48;103189.56;;;-1.91;100.00
39823;BME280;25499;53.958;10.970;2023-01-25T09:17:13;103187.66;;;-1.93;100.00
39823;BME280;25499;53.958;10.970;2023-01-25T09:19:39;103188.75;;;-2.00;100.00
39823;BME280;25499;53.958;10.970;2023-01-25T09:22:06;103193.13;;;-1.89;100.00
39823;BME280;25499;53.958;10.970;2023-01-25T09:24:32;103185.09;;;-1.93;100.00
39823;BME280;25499;53.958;10.970;2023-01-25T09:26:59;103180.31;;;-1.99;100.00
39823;BME280;25499;53.958;10.970;2023-01-25T09:29:24;103181.84;;;-2.01;100.00
39823;BME280;25499;53.958;10.970;2023-01-25T09:31:50;103186.88;;;-1.92;100.00
39823;BME280;25499;53.958;10.970;2023-01-25T09:34:16;103180.59;;;-1.96;100.00
39823;BME280;25499;53.958;10.970;2023-01-25T09:36:42;103184.09;;;-1.85;100.00
39823;BME280;25499;53.958;10.970;2023-01-25T09:39:11;103180.78;;;-1.84;100.00
39823;BME280;25499;53.958;10.970;2023-01-25T09:44:35;103169.69;;;-1.84;100.00
39823;BME280;25499;53.958;10.970;2023-01-25T09:50:09;103161.50;;;-1.80;100.00
39823;BME280;25499;53.958;10.970;2023-01-25T09:55:29;103161.50;;;-1.80;100.00
39823;BME280;25499;53.958;10.970;2023-01-25T09:57:57;103158.44;;;-1.86;100.00
39823;BME280;25499;53.958;10.970;2023-01-25T10:00:32;103152.81;;;-1.82;100.00
39823;BME280;25499;53.958;10.970;2023-01-25T10:03:37;103155.50;;;-1.81;100.00
39823;BME280;25499;53.958;10.970;2023-01-25T10:05:55;103150.41;;;-1.81;100.00
39823;BME280;25499;53.958;10.970;2023-01-25T10:08:37;103151.44;;;-1.69;100.00
39823;BME280;25499;53.958;10.970;2023-01-25T10:11:32;103135.22;;;-1.79;100.00
39823;BME280;25499;53.958;10.970;2023-01-25T10:13:58;103141.63;;;-1.74;100.00
39823;BME280;25499;53.958;10.970;2023-01-25T10:16:48;103125.66;;;-1.72;100.00
39823;BME280;25499;53.958;10.970;2023-01-25T10:22:14;103130.28;;;-1.57;100.00
39823;BME280;25499;53.958;10.970;2023-01-25T10:30:23;103102.81;;;-1.70;100.00
39823;BME280;25499;53.958;10.970;2023-01-25T10:32:53;103109.31;;;-1.63;100.00
39823;BME280;25499;53.958;10.970;2023-01-25T10:35:21;103099.75;;;-1.66;100.00
39823;BME280;25499;53.958;10.970;2023-01-25T10:37:48;103101.78;;;-1.62;100.00
39823;BME280;25499;53.958;10.970;2023-01-25T10:40:18;103096.81;;;-1.60;100.00
39823;BME280;25499;53.958;10.970;2023-01-25T10:43:04;103098.91;;;-1.46;100.00
39823;BME280;25499;53.958;10.970;2023-01-25T10:45:31;103084.44;;;-1.45;100.00
39823;BME280;25499;53.958;10.970;2023-01-25T10:48:01;103077.06;;;-1.53;100.00
39823;BME280;25499;53.958;10.970;2023-01-25T10:58:43;103055.84;;;-1.52;100.00
39823;BME280;25499;53.958;10.970;2023-01-25T11:01:30;103057.38;;;-1.43;100.00
39823;BME280;25499;53.958;10.970;2023-01-25T11:03:57;103043.84;;;-1.53;100.00
39823;BME280;25499;53.958;10.970;2023-01-25T11:06:33;103047.53;;;-1.39;100.00
39823;BME280;25499;53.958;10.970;2023-01-25T11:08:59;103042.69;;;-1.46;100.00
39823;BME280;25499;53.958;10.970;2023-01-25T11:11:35;103045.88;;;-1.38;100.00
39823;BME280;25499;53.958;10.970;2023-01-25T11:14:02;103033.75;;;-1.41;100.00
39823;BME280;25499;53.958;10.970;2023-01-25T11:16:39;103018.91;;;-1.45;100.00
39823;BME280;25499;53.958;10.970;2023-01-25T11:21:53;103010.88;;;-1.50;100.00
39823;BME280;25499;53.958;10.970;2023-01-25T11:24:18;103006.03;;;-1.46;100.00
39823;BME280;25499;53.958;10.970;2023-01-25T11:26:44;103010.09;;;-1.28;100.00
39823;BME280;25499;53.958;10.970;2023-01-25T11:29:21;102994.88;;;-1.26;100.00
39823;BME280;25499;53.958;10.970;2023-01-25T11:31:52;102982.50;;;-1.32;100.00
39823;BME280;25499;53.958;10.970;2023-01-25T11:34:20;102976.63;;;-1.31;100.00
39823;BME280;25499;53.958;10.970;2023-01-25T11:40:01;102976.13;;;-1.27;100.00
39823;BME280;25499;53.958;10.970;2023-01-25T11:46:03;102955.81;;;-1.36;100.00
39823;BME280;25499;53.958;10.970;2023-01-25T11:50:39;102940.84;;;-1.31;100.00
39823;BME280;25499;53.958;10.970;2023-01-25T11:59:43;102927.34;;;-1.40;100.00
39823;BME280;25499;53.958;10.970;2023-01-25T12:23:35;102878.66;;;-1.32;100.00
39823;BME280;25499;53.958;10.970;2023-01-25T12:28:48;102895.78;;;-1.30;100.00
39823;BME280;25499;53.958;10.970;2023-01-25T12:31:25;102897.66;;;-1.28;100.00
39823;BME280;25499;53.958;10.970;2023-01-25T12:33:58;102875.72;;;-1.36;100.00
39823;BME280;25499;53.958;10.970;2023-01-25T12:36:31;102873.56;;;-1.42;100.00
39823;BME280;25499;53.958;10.970;2023-01-25T12:39:30;102864.84;;;-1.34;100.00
39823;BME280;25499;53.958;10.970;2023-01-25T12:42:36;102866.13;;;-1.28;100.00
39823;BME280;25499;53.958;10.970;2023-01-25T12:45:10;102866.50;;;-1.24;100.00
39823;BME280;25499;53.958;10.970;2023-01-25T12:47:44;102863.66;;;-1.17;100.00
39823;BME280;25499;53.958;10.970;2023-01-25T12:50:17;102854.19;;;-1.18;100.00
39823;BME280;25499;53.958;10.970;2023-01-25T12:52:58;102847.00;;;-1.11;100.00
39823;BME280;25499;53.958;10.970;2023-01-25T12:55:26;102840.28;;;-1.21;100.00
39823;BME280;25499;53.958;10.970;2023-01-25T13:11:29;102813.22;;;-1.07;99.82
39823;BME280;25499;53.958;10.970;2023-01-25T13:16:42;102793.59;;;-1.08;99.94
39823;BME280;25499;53.958;10.970;2023-01-25T13:21:59;102789.03;;;-1.23;99.38
39823;BME280;25499;53.958;10.970;2023-01-25T13:24:29;102789.84;;;-1.24;99.48
39823;BME280;25499;53.958;10.970;2023-01-25T13:37:30;102787.28;;;-1.02;99.97
39823;BME280;25499;53.958;10.970;2023-01-25T13:40:29;102778.38;;;-1.07;99.80
39823;BME280;25499;53.958;10.970;2023-01-25T13:43:04;102771.69;;;-1.05;99.83
39823;BME280;25499;53.958;10.970;2023-01-25T13:45:34;102759.31;;;-1.10;99.82
39823;BME280;25499;53.958;10.970;2023-01-25T13:50:28;102761.03;;;-0.99;99.88
39823;BME280;25499;53.958;10.970;2023-01-25T13:55:24;102766.47;;;-1.06;99.66
39823;BME280;25499;53.958;10.970;2023-01-25T13:57:49;102764.91;;;-1.04;99.44
39823;BME280;25499;53.958;10.970;2023-01-25T14:00:16;102758.63;;;-1.20;99.23
39823;BME280;25499;53.958;10.970;2023-01-25T14:02:44;102756.06;;;-1.20;99.54
39823;BME280;25499;53.958;10.970;2023-01-25T14:05:18;102751.38;;;-1.25;99.70
39823;BME280;25499;53.958;10.970;2023-01-25T14:07:46;102752.38;;;-1.23;99.78
39823;BME280;25499;53.958;10.970;2023-01-25T14:10:15;102753.88;;;-1.15;99.65
39823;BME280;25499;53.958;10.970;2023-01-25T14:12:43;102751.56;;;-1.12;99.50
39823;BME280;25499;53.958;10.970;2023-01-25T14:15:24;102747.09;;;-1.15;99.65
39823;BME280;25499;53.958;10.970;2023-01-25T14:18:09;102740.78;;;-1.08;99.56
39823;BME280;25499;53.958;10.970;2023-01-25T14:20:36;102728.09;;;-1.18;99.33
39823;BME280;25499;53.958;10.970;2023-01-25T14:23:01;102728.56;;;-1.12;99.51
39823;BME280;25499;53.958;10.970;2023-01-25T14:25:28;102728.59;;;-1.22;99.24
39823;BME280;25499;53.958;10.970;2023-01-25T14:27:59;102729.50;;;-1.22;99.01
39823;BME280;25499;53.958;10.970;2023-01-25T14:30:30;102730.22;;;-1.35;98.72
39823;BME280;25499;53.958;10.970;2023-01-25T14:33:17;102729.75;;;-1.41;98.79
39823;BME280;25499;53.958;10.970;2023-01-25T14:35:51;102725.06;;;-1.46;98.90
39823;BME280;25499;53.958;10.970;2023-01-25T14:38:21;102719.31;;;-1.44;99.03
39823;BME280;25499;53.958;10.970;2023-01-25T14:40:47;102717.06;;;-1.39;99.25
39823;BME280;25499;53.958;10.970;2023-01-25T14:43:14;102724.75;;;-1.39;98.92
39823;BME280;25499;53.958;10.970;2023-01-25T14:45:41;102714.44;;;-1.41;99.10
39823;BME280;25499;53.958;10.970;2023-01-25T14:48:39;102712.16;;;-1.48;99.28
39823;BME280;25499;53.958;10.970;2023-01-25T14:51:11;102709.59;;;-1.48;99.47
39823;BME280;25499;53.958;10.970;2023-01-25T14:53:40;102709.53;;;-1.38;99.48
39823;BME280;25499;53.958;10.970;2023-01-25T14:58:52;102710.03;;;-1.54;99.47
39823;BME280;25499;53.958;10.970;2023-01-25T15:03:54;102693.34;;;-1.60;99.63
39823;BME280;25499;53.958;10.970;2023-01-25T15:06:20;102693.09;;;-1.63;99.95
39823;BME280;25499;53.958;10.970;2023-01-25T15:08:46;102695.72;;;-1.52;99.95
39823;BME280;25499;53.958;10.970;2023-01-25T15:11:30;102691.28;;;-1.54;100.00
39823;BME280;25499;53.958;10.970;2023-01-25T15:14:25;102689.03;;;-1.50;100.00
39823;BME280;25499;53.958;10.970;2023-01-25T15:16:51;102690.34;;;-1.55;100.00
39823;BME280;25499;53.958;10.970;2023-01-25T15:19:26;102687.81;;;-1.55;100.00
39823;BME280;25499;53.958;10.970;2023-01-25T15:21:56;102686.81;;;-1.57;100.00
39823;BME280;25499;53.958;10.970;2023-01-25T15:24:24;102688.34;;;-1.59;100.00
39823;BME280;25499;53.958;10.970;2023-01-25T15:26:51;102698.69;;;-1.57;100.00
39823;BME280;25499;53.958;10.970;2023-01-25T15:29:22;102697.69;;;-1.59;100.00
39823;BME280;25499;53.958;10.970;2023-01-25T15:31:50;102691.31;;;-1.64;100.00
39823;BME280;25499;53.958;10.970;2023-01-25T15:34:26;102686.44;;;-1.61;100.00
39823;BME280;25499;53.958;10.970;2023-01-25T15:36:54;102676.75;;;-1.65;100.00
39823;BME280;25499;53.958;10.970;2023-01-25T15:39:19;102664.44;;;-1.71;100.00
39823;BME280;25499;53.958;10.970;2023-01-25T15:41:45;102678.69;;;-1.63;100.00
39823;BME280;25499;53.958;10.970;2023-01-25T15:44:11;102679.44;;;-1.64;100.00
39823;BME280;25499;53.958;10.970;2023-01-25T15:46:39;102675.88;;;-1.66;100.00
39823;BME280;25499;53.958;10.970;2023-01-25T15:49:07;102680.03;;;-1.56;100.00
39823;BME280;25499;53.958;10.970;2023-01-25T15:51:33;102668.16;;;-1.56;100.00
39823;BME280;25499;53.958;10.970;2023-01-25T15:53:59;102656.69;;;-1.61;100.00
39823;BME280;25499;53.958;10.970;2023-01-25T15:56:30;102668.47;;;-1.63;100.00
39823;BME280;25499;53.958;10.970;2023-01-25T15:58:59;102661.03;;;-1.60;100.00
39823;BME280;25499;53.958;10.970;2023-01-25T16:01:26;102657.72;;;-1.59;100.00
39823;BME280;25499;53.958;10.970;2023-01-25T16:03:56;102653.16;;;-1.63;100.00
39823;BME280;25499;53.958;10.970;2023-01-25T16:06:45;102643.16;;;-1.60;100.00
39823;BME280;25499;53.958;10.970;2023-01-25T16:09:15;102644.06;;;-1.59;100.00
39823;BME280;25499;53.958;10.970;2023-01-25T16:11:41;102639.53;;;-1.52;100.00
39823;BME280;25499;53.958;10.970;2023-01-25T16:14:06;102630.84;;;-1.54;100.00
39823;BME280;25499;53.958;10.970;2023-01-25T16:16:35;102628.63;;;-1.61;100.00
39823;BME280;25499;53.958;10.970;2023-01-25T16:31:38;102646.41;;;-1.51;100.00
39823;BME280;25499;53.958;10.970;2023-01-25T16:34:03;102630.84;;;-1.54;100.00
39823;BME280;25499;53.958;10.970;2023-01-25T16:36:31;102625.50;;;-1.57;100.00
39823;BME280;25499;53.958;10.970;2023-01-25T16:39:27;102623.50;;;-1.61;100.00
39823;BME280;25499;53.958;10.970;2023-01-25T16:41:53;102626.47;;;-1.66;100.00
39823;BME280;25499;53.958;10.970;2023-01-25T16:44:19;102632.66;;;-1.53;100.00
39823;BME280;25499;53.958;10.970;2023-01-25T16:46:45;102638.28;;;-1.57;100.00
39823;BME280;25499;53.958;10.970;2023-01-25T16:49:21;102627.69;;;-1.61;100.00
39823;BME280;25499;53.958;10.970;2023-01-25T16:51:48;102630.94;;;-1.64;100.00
39823;BME280;25499;53.958;10.970;2023-01-25T16:54:15;102629.06;;;-1.55;100.00
39823;BME280;25499;53.958;10.970;2023-01-25T16:56:40;102622.72;;;-1.60;100.00
39823;BME280;25499;53.958;10.970;2023-01-25T16:59:06;102623.97;;;-1.55;100.00
39823;BME280;25499;53.958;10.970;2023-01-25T17:01:33;102615.97;;;-1.59;100.00
39823;BME280;25499;53.958;10.970;2023-01-25T17:03:59;102619.09;;;-1.52;100.00
39823;BME280;25499;53.958;10.970;2023-01-25T17:06:30;102616.22;;;-1.44;100.00
39823;BME280;25499;53.958;10.970;2023-01-25T17:08:59;102608.03;;;-1.40;100.00
39823;BME280;25499;53.958;10.970;2023-01-25T17:11:26;102610.91;;;-1.47;100.00
39823;BME280;25499;53.958;10.970;2023-01-25T17:13:54;102599.44;;;-1.53;100.00
39823;BME280;25499;53.958;10.970;2023-01-25T17:16:22;102608.47;;;-1.46;100.00
39823;BME280;25499;53.958;10.970;2023-01-25T17:19:02;102597.97;;;-1.61;100.00
39823;BME280;25499;53.958;10.970;2023-01-25T17:21:28;102607.88;;;-1.54;100.00
39823;BME280;25499;53.958;10.970;2023-01-25T17:23:56;102600.97;;;-1.55;100.00
39823;BME280;25499;53.958;10.970;2023-01-25T17:26:22;102601.28;;;-1.62;100.00
39823;BME280;25499;53.958;10.970;2023-01-25T17:28:48;102595.53;;;-1.59;100.00
39823;BME280;25499;53.958;10.970;2023-01-25T17:31:22;102592.78;;;-1.51;100.00
39823;BME280;25499;53.958;10.970;2023-01-25T17:33:48;102591.34;;;-1.47;100.00
39823;BME280;25499;53.958;10.970;2023-01-25T17:36:15;102585.38;;;-1.47;100.00
39823;BME280;25499;53.958;10.970;2023-01-25T17:38:41;102584.56;;;-1.46;100.00
39823;BME280;25499;53.958;10.970;2023-01-25T17:41:09;102578.16;;;-1.41;100.00
39823;BME280;25499;53.958;10.970;2023-01-25T17:43:35;102574.91;;;-1.51;100.00
39823;BME280;25499;53.958;10.970;2023-01-25T17:48:36;102571.81;;;-1.46;100.00
39823;BME280;25499;53.958;10.970;2023-01-25T17:51:02;102576.50;;;-1.41;100.00
39823;BME280;25499;53.958;10.970;2023-01-25T17:53:29;102566.78;;;-1.57;100.00
39823;BME280;25499;53.958;10.970;2023-01-25T17:55:55;102570.03;;;-1.47;100.00
39823;BME280;25499;53.958;10.970;2023-01-25T17:58:21;102559.22;;;-1.55;100.00
39823;BME280;25499;53.958;10.970;2023-01-25T18:00:47;102551.56;;;-1.55;100.00
39823;BME280;25499;53.958;10.970;2023-01-25T18:03:12;102539.81;;;-1.53;100.00
39823;BME280;25499;53.958;10.970;2023-01-25T18:05:38;102542.59;;;-1.50;100.00
39823;BME280;25499;53.958;10.970;2023-01-25T18:08:05;102542.47;;;-1.52;100.00
39823;BME280;25499;53.958;10.970;2023-01-25T18:10:30;102546.34;;;-1.57;100.00
39823;BME280;25499;53.958;10.970;2023-01-25T18:12:56;102546.47;;;-1.55;100.00
39823;BME280;25499;53.958;10.970;2023-01-25T18:15:22;102542.34;;;-1.53;100.00
39823;BME280;25499;53.958;10.970;2023-01-25T18:17:48;102535.91;;;-1.60;100.00
39823;BME280;25499;53.958;10.970;2023-01-25T18:20:14;102532.47;;;-1.60;100.00
39823;BME280;25499;53.958;10.970;2023-01-25T18:22:40;102534.69;;;-1.53;100.00
39823;BME280;25499;53.958;10.970;2023-01-25T18:25:27;102526.53;;;-1.37;100.00
39823;BME280;25499;53.958;10.970;2023-01-25T18:27:54;102532.41;;;-1.38;100.00
39823;BME280;25499;53.958;10.970;2023-01-25T18:30:30;102538.59;;;-1.46;100.00
39823;BME280;25499;53.958;10.970;2023-01-25T18:32:57;102529.94;;;-1.48;100.00
39823;BME280;25499;53.958;10.970;2023-01-25T18:35:23;102525.16;;;-1.56;100.00
39823;BME280;25499;53.958;10.970;2023-01-25T18:37:52;102516.94;;;-1.52;100.00
39823;BME280;25499;53.958;10.970;2023-01-25T18:40:18;102508.03;;;-1.57;100.00
39823;BME280;25499;53.958;10.970;2023-01-25T18:42:44;102512.50;;;-1.54;100.00
39823;BME280;25499;53.958;10.970;2023-01-25T18:45:13;102517.72;;;-1.53;100.00
39823;BME280;25499;53.958;10.970;2023-01-25T18:47:38;102522.94;;;-1.39;100.00
39823;BME280;25499;53.958;10.970;2023-01-25T18:50:05;102516.94;;;-1.52;100.00
39823;BME280;25499;53.958;10.970;2023-01-25T18:52:30;102511.81;;;-1.52;100.00
39823;BME280;25499;53.958;10.970;2023-01-25T18:54:56;102509.19;;;-1.41;100.00
39823;BME280;25499;53.958;10.970;2023-01-25T18:57:22;102498.94;;;-1.53;100.00
39823;BME280;25499;53.958;10.970;2023-01-25T18:59:48;102497.31;;;-1.53;100.00
39823;BME280;25499;53.958;10.970;2023-01-25T19:02:14;102486.84;;;-1.56;100.00
39823;BME280;25499;53.958;10.970;2023-01-25T19:04:40;102492.50;;;-1.60;100.00
39823;BME280;25499;53.958;10.970;2023-01-25T19:07:06;102497.59;;;-1.60;100.00
39823;BME280;25499;53.958;10.970;2023-01-25T19:09:31;102498.72;;;-1.44;100.00
39823;BME280;25499;53.958;10.970;2023-01-25T19:11:57;102491.88;;;-1.45;100.00
39823;BME280;25499;53.958;10.970;2023-01-25T19:14:23;102483.63;;;-1.41;100.00
39823;BME280;25499;53.958;10.970;2023-01-25T19:16:49;102483.41;;;-1.44;100.00
39823;BME280;25499;53.958;10.970;2023-01-25T19:19:15;102484.41;;;-1.54;100.00
39823;BME280;25499;53.958;10.970;2023-01-25T19:21:40;102482.06;;;-1.51;100.00
39823;BME280;25499;53.958;10.970;2023-01-25T19:24:11;102486.28;;;-1.52;100.00
39823;BME280;25499;53.958;10.970;2023-01-25T19:26:38;102485.84;;;-1.58;100.00
39823;BME280;25499;53.958;10.970;2023-01-25T19:29:04;102484.53;;;-1.53;100.00
39823;BME280;25499;53.958;10.970;2023-01-25T19:31:30;102481.97;;;-1.53;100.00
39823;BME280;25499;53.958;10.970;2023-01-25T19:34:03;102470.19;;;-1.62;100.00
39823;BME280;25499;53.958;10.970;2023-01-25T19:36:34;102469.94;;;-1.65;100.00
39823;BME280;25499;53.958;10.970;2023-01-25T19:39:04;102466.50;;;-1.66;100.00
39823;BME280;25499;53.958;10.970;2023-01-25T19:41:34;102468.75;;;-1.59;100.00
39823;BME280;25499;53.958;10.970;2023-01-25T19:44:01;102463.41;;;-1.62;100.00
39823;BME280;25499;53.958;10.970;2023-01-25T19:46:29;102460.50;;;-1.66;100.00
39823;BME280;25499;53.958;10.970;2023-01-25T19:48:56;102450.50;;;-1.75;100.00
39823;BME280;25499;53.958;10.970;2023-01-25T19:51:36;102448.28;;;-1.71;100.00
39823;BME280;25499;53.958;10.970;2023-01-25T19:54:04;102448.41;;;-1.69;100.00
39823;BME280;25499;53.958;10.970;2023-01-25T19:56:39;102437.19;;;-1.71;100.00
39823;BME280;25499;53.958;10.970;2023-01-25T19:59:07;102442.53;;;-1.68;100.00
39823;BME280;25499;53.958;10.970;2023-01-25T20:01:34;102443.53;;;-1.66;100.00
39823;BME280;25499;53.958;10.970;2023-01-25T20:04:01;102436.88;;;-1.64;100.00
39823;BME280;25499;53.958;10.970;2023-01-25T20:06:30;102431.44;;;-1.57;100.00
39823;BME280;25499;53.958;10.970;2023-01-25T20:08:55;102435.88;;;-1.66;100.00
39823;BME280;25499;53.958;10.970;2023-01-25T20:11:29;102435.88;;;-1.66;100.00
39823;BME280;25499;53.958;10.970;2023-01-25T20:13:56;102433.00;;;-1.59;100.00
39823;BME280;25499;53.958;10.970;2023-01-25T20:16:23;102435.66;;;-1.69;100.00
39823;BME280;25499;53.958;10.970;2023-01-25T20:18:49;102421.78;;;-1.73;100.00
39823;BME280;25499;53.958;10.970;2023-01-25T20:21:17;102424.66;;;-1.68;100.00
39823;BME280;25499;53.958;10.970;2023-01-25T20:23:45;102426.53;;;-1.65;100.00
39823;BME280;25499;53.958;10.970;2023-01-25T20:26:17;102422.56;;;-1.50;100.00
39823;BME280;25499;53.958;10.970;2023-01-25T20:28:46;102414.03;;;-1.51;100.00
39823;BME280;25499;53.958;10.970;2023-01-25T20:33:43;102401.69;;;-1.68;100.00
39823;BME280;25499;53.958;10.970;2023-01-25T20:36:08;102407.91;;;-1.76;100.00
39823;BME280;25499;53.958;10.970;2023-01-25T20:38:35;102416.78;;;-1.71;100.00
39823;BME280;25499;53.958;10.970;2023-01-25T20:41:05;102421.41;;;-1.77;100.00
39823;BME280;25499;53.958;10.970;2023-01-25T20:43:31;102406.56;;;-1.83;100.00
39823;BME280;25499;53.958;10.970;2023-01-25T20:45:58;102406.88;;;-1.78;100.00
39823;BME280;25499;53.958;10.970;2023-01-25T20:48:28;102404.13;;;-1.70;100.00
39823;BME280;25499;53.958;10.970;2023-01-25T20:51:06;102396.13;;;-1.74;100.00
39823;BME280;25499;53.958;10.970;2023-01-25T20:53:37;102398.34;;;-1.67;100.00
39823;BME280;25499;53.958;10.970;2023-01-25T20:56:04;102403.22;;;-1.70;100.00
